Time;durP1;ratioP1;P1;durP2;ratioP2;P2;SDS_P1;SDS_P2;PMS_P1;PMS_P2;Temp;Humidity;BMP_temperature;BMP_pressure;BME280_temperature;BME280_humidity;BME280_pressure;Samples;Min_cycle;Max_cycle;Signal;HPM_P1;HPM_P2
2022/07/15 00:02:06;;;;;;;1.80;1.60;;;19.00;54.00;;;;;;5048847;28;20637;-82
2022/07/15 00:04:33;;;;;;;1.50;1.40;;;19.00;54.00;;;;;;5052199;28;20629;-80
2022/07/15 00:06:59;;;;;;;1.50;1.40;;;19.00;53.60;;;;;;5064708;28;20725;-81
2022/07/15 00:12:08;;;;;;;1.30;1.20;;;19.10;53.60;;;;;;5069312;28;21186;-83
2022/07/15 00:14:38;;;;;;;2.30;2.10;;;19.10;53.90;;;;;;5051510;28;20709;-83
2022/07/15 00:17:06;;;;;;;1.63;1.53;;;19.10;54.40;;;;;;5055193;28;20628;-82
2022/07/15 00:19:33;;;;;;;1.80;1.30;;;18.90;54.70;;;;;;5050589;28;20873;-82
2022/07/15 00:22:02;;;;;;;2.50;1.57;;;18.90;55.20;;;;;;5051249;28;20653;-83
2022/07/15 00:24:30;;;;;;;2.00;1.60;;;18.80;55.90;;;;;;5069639;28;20632;-83
2022/07/15 00:26:58;;;;;;;1.53;1.43;;;18.80;55.70;;;;;;5069487;28;20621;-83
2022/07/15 00:29:25;;;;;;;1.40;1.30;;;18.70;55.90;;;;;;5050839;28;21169;-83
2022/07/15 00:31:54;;;;;;;1.40;1.30;;;18.70;56.30;;;;;;5057622;28;20609;-83
2022/07/15 00:34:23;;;;;;;2.00;1.80;;;18.60;56.10;;;;;;5056904;28;20621;-82
2022/07/15 00:36:51;;;;;;;1.33;1.23;;;18.60;56.30;;;;;;5059459;28;20630;-83
2022/07/15 00:39:18;;;;;;;1.70;1.60;;;18.50;56.20;;;;;;5050962;28;20626;-82
2022/07/15 00:41:45;;;;;;;1.60;1.50;;;18.50;56.90;;;;;;5053905;28;21048;-82
2022/07/15 00:44:13;;;;;;;1.97;1.73;;;18.40;57.10;;;;;;5059422;28;20617;-82
2022/07/15 00:46:41;;;;;;;1.53;1.43;;;18.20;57.10;;;;;;5055172;28;20625;-83
2022/07/15 00:49:11;;;;;;;1.20;1.10;;;18.20;56.80;;;;;;5049805;28;20662;-81
2022/07/15 00:51:42;;;;;;;1.47;1.37;;;18.10;57.20;;;;;;5050952;28;21283;-82
2022/07/15 00:54:11;;;;;;;1.80;1.47;;;17.90;57.20;;;;;;5054625;28;20619;-83
2022/07/15 00:56:44;;;;;;;1.70;1.50;;;17.80;57.80;;;;;;5059635;28;21107;-83
2022/07/15 00:59:12;;;;;;;2.00;1.00;;;17.70;57.70;;;;;;5059062;28;20725;-83
2022/07/15 01:01:39;;;;;;;4.27;2.00;;;17.50;57.40;;;;;;5063631;28;21056;-84
2022/07/15 01:04:06;;;;;;;1.70;1.60;;;17.50;57.60;;;;;;5050430;28;20704;-82
2022/07/15 01:06:35;;;;;;;1.73;1.53;;;17.70;58.10;;;;;;5049414;28;20602;-83
2022/07/15 01:09:02;;;;;;;1.70;1.60;;;17.60;58.50;;;;;;5055843;28;20986;-82
2022/07/15 01:11:30;;;;;;;2.37;1.80;;;17.40;59.10;;;;;;5056452;28;20643;-83
2022/07/15 01:13:58;;;;;;;1.33;1.23;;;17.40;59.20;;;;;;5050250;28;20618;-82
2022/07/15 01:16:25;;;;;;;2.00;1.80;;;17.40;59.00;;;;;;5055822;28;20670;-83
2022/07/15 01:18:52;;;;;;;2.00;1.63;;;17.40;59.40;;;;;;5037690;28;20615;-82
2022/07/15 01:21:22;;;;;;;1.40;1.30;;;17.40;59.20;;;;;;5058932;28;20752;-82
2022/07/15 01:23:50;;;;;;;1.70;1.30;;;17.30;59.10;;;;;;5053155;28;20629;-81
2022/07/15 01:26:18;;;;;;;1.60;1.50;;;17.20;58.80;;;;;;5050169;28;20626;-81
2022/07/15 01:28:45;;;;;;;1.63;1.53;;;17.20;59.20;;;;;;5049474;28;20624;-81
2022/07/15 01:31:14;;;;;;;1.13;1.13;;;17.20;59.40;;;;;;5050029;28;20744;-80
2022/07/15 01:33:42;;;;;;;1.30;1.20;;;17.10;59.50;;;;;;5056378;28;20725;-80
2022/07/15 01:36:11;;;;;;;1.23;1.13;;;17.10;59.10;;;;;;5060097;28;20681;-82
2022/07/15 01:38:40;;;;;;;1.43;1.33;;;17.20;59.70;;;;;;5050611;28;20649;-80
2022/07/15 01:41:07;;;;;;;1.43;1.33;;;17.10;58.90;;;;;;5050603;28;20643;-80
2022/07/15 01:43:35;;;;;;;1.87;1.20;;;17.20;58.30;;;;;;5049201;28;20673;-80
2022/07/15 01:46:03;;;;;;;2.03;1.93;;;17.10;59.20;;;;;;5049335;28;20630;-80
2022/07/15 01:51:16;;;;;;;1.93;1.63;;;17.00;58.50;;;;;;5065551;28;20630;-80
2022/07/15 01:53:45;;;;;;;1.70;1.20;;;17.10;57.90;;;;;;5061315;28;20613;-80
2022/07/15 01:56:12;;;;;;;1.43;1.33;;;17.00;59.10;;;;;;5052241;28;20675;-80
2022/07/15 01:58:39;;;;;;;2.63;1.50;;;16.80;59.00;;;;;;5062726;28;20724;-81
2022/07/15 02:01:07;;;;;;;1.77;1.50;;;16.70;59.90;;;;;;5055389;28;20653;-80
2022/07/15 02:03:34;;;;;;;1.60;1.50;;;16.60;59.80;;;;;;5057898;28;20649;-81
2022/07/15 02:06:01;;;;;;;1.83;1.30;;;16.50;60.30;;;;;;5068956;28;21230;-81
2022/07/15 02:08:28;;;;;;;1.40;1.30;;;16.40;60.50;;;;;;5055771;28;20621;-80
2022/07/15 02:10:56;;;;;;;2.83;1.63;;;16.40;60.70;;;;;;5048807;28;20969;-80
2022/07/15 02:13:23;;;;;;;1.97;1.30;;;16.60;61.10;;;;;;5049437;28;20650;-80
2022/07/15 02:15:50;;;;;;;1.40;1.30;;;16.50;61.30;;;;;;5053091;28;20683;-80
2022/07/15 02:18:18;;;;;;;1.53;1.43;;;16.40;61.60;;;;;;5067242;28;20617;-80
2022/07/15 02:20:46;;;;;;;1.63;1.40;;;16.30;61.00;;;;;;5052152;28;20652;-80
2022/07/15 02:23:13;;;;;;;1.80;1.70;;;16.20;61.50;;;;;;5054840;28;20623;-80
2022/07/15 02:25:40;;;;;;;1.80;1.70;;;16.30;61.70;;;;;;5048708;28;20677;-80
2022/07/15 02:28:09;;;;;;;2.13;1.80;;;16.20;62.70;;;;;;5049631;28;20630;-79
2022/07/15 02:30:39;;;;;;;2.33;1.37;;;16.20;63.10;;;;;;5036725;28;20732;-80
2022/07/15 02:33:07;;;;;;;2.83;1.70;;;16.10;64.20;;;;;;5061118;28;20729;-80
2022/07/15 02:35:34;;;;;;;1.80;1.70;;;15.90;64.50;;;;;;5066723;28;20732;-80
2022/07/15 02:38:02;;;;;;;1.50;1.40;;;15.80;64.60;;;;;;5046210;28;20617;-80
2022/07/15 02:40:30;;;;;;;1.83;1.73;;;15.80;64.70;;;;;;5064404;28;20633;-80
2022/07/15 02:42:59;;;;;;;2.10;1.90;;;15.80;65.80;;;;;;5053034;28;20632;-80
2022/07/15 02:45:29;;;;;;;2.90;1.87;;;15.90;65.00;;;;;;5056220;28;20741;-80
2022/07/15 02:47:56;;;;;;;1.90;1.70;;;15.90;65.10;;;;;;5066771;28;20673;-80
2022/07/15 02:50:23;;;;;;;1.90;1.27;;;15.90;64.60;;;;;;5052930;28;21434;-80
2022/07/15 02:52:50;;;;;;;2.30;2.10;;;15.70;66.00;;;;;;5053172;28;20660;-80
2022/07/15 02:55:18;;;;;;;2.20;2.00;;;15.60;65.80;;;;;;5066957;28;21101;-81
2022/07/15 02:57:45;;;;;;;2.30;1.77;;;15.50;66.20;;;;;;5066577;28;20728;-81
2022/07/15 03:00:14;;;;;;;1.90;1.70;;;15.50;67.00;;;;;;5049477;28;20662;-81
2022/07/15 03:02:43;;;;;;;1.90;1.80;;;15.50;67.00;;;;;;5060685;28;20653;-81
2022/07/15 03:05:11;;;;;;;1.70;1.60;;;15.50;66.60;;;;;;5050272;28;20753;-81
2022/07/15 03:07:38;;;;;;;3.07;1.97;;;15.50;67.50;;;;;;5059838;28;20633;-81
2022/07/15 03:10:06;;;;;;;3.10;2.80;;;15.50;66.40;;;;;;5059279;28;21021;-81
2022/07/15 03:12:34;;;;;;;2.40;2.20;;;15.40;67.40;;;;;;5047330;28;20612;-80
2022/07/15 03:15:01;;;;;;;2.20;2.00;;;15.30;66.40;;;;;;5063280;28;20621;-81
2022/07/15 03:17:29;;;;;;;2.20;1.63;;;15.30;69.00;;;;;;5067680;28;20656;-81
2022/07/15 03:19:57;;;;;;;2.10;1.90;;;15.30;67.50;;;;;;5053648;28;20626;-81
2022/07/15 03:22:24;;;;;;;2.00;1.70;;;15.10;69.00;;;;;;5052780;28;20785;-81
2022/07/15 03:24:52;;;;;;;2.10;2.00;;;15.00;69.70;;;;;;5057807;28;20721;-80
2022/07/15 03:27:18;;;;;;;1.60;1.50;;;14.90;69.60;;;;;;5053350;28;20744;-80
2022/07/15 03:29:45;;;;;;;1.90;1.80;;;14.90;69.80;;;;;;5065754;28;21198;-81
2022/07/15 03:32:15;;;;;;;1.77;1.67;;;14.90;69.80;;;;;;5065248;28;21119;-81
2022/07/15 03:34:43;;;;;;;2.13;1.83;;;15.00;70.80;;;;;;5047789;28;20649;-81
2022/07/15 03:37:12;;;;;;;2.77;2.07;;;14.90;70.50;;;;;;5043868;28;20687;-81
2022/07/15 03:39:39;;;;;;;1.60;1.50;;;14.90;70.20;;;;;;5063016;28;20633;-81
2022/07/15 03:42:06;;;;;;;3.10;2.13;;;14.80;71.60;;;;;;5054791;28;20654;-81
2022/07/15 03:44:33;;;;;;;3.83;3.07;;;14.80;70.60;;;;;;5053913;28;20693;-82
2022/07/15 03:47:00;;;;;;;3.80;3.10;;;14.80;70.80;;;;;;5053079;28;20634;-81
2022/07/15 03:49:27;;;;;;;4.03;2.50;;;15.00;70.40;;;;;;5052265;28;21174;-81
2022/07/15 03:51:54;;;;;;;3.27;2.57;;;14.90;70.80;;;;;;5054331;28;20617;-80
2022/07/15 03:54:22;;;;;;;1.80;1.70;;;14.80;71.30;;;;;;5061481;28;20729;-80
2022/07/15 03:56:49;;;;;;;3.00;2.53;;;14.80;71.70;;;;;;5064705;28;20679;-80
2022/07/15 03:59:17;;;;;;;2.30;2.10;;;14.80;72.00;;;;;;5057841;28;20654;-81
2022/07/15 04:01:43;;;;;;;2.63;2.00;;;14.90;73.40;;;;;;5054982;28;20752;-81
2022/07/15 04:04:10;;;;;;;3.00;2.03;;;14.80;73.80;;;;;;5052838;28;20622;-81
2022/07/15 04:06:37;;;;;;;5.77;2.67;;;14.80;73.80;;;;;;5062798;28;20656;-81
2022/07/15 04:09:04;;;;;;;3.17;2.00;;;14.80;73.20;;;;;;5062355;28;20675;-81
2022/07/15 04:11:32;;;;;;;2.13;1.93;;;14.90;73.80;;;;;;5071485;28;20628;-81
2022/07/15 04:13:59;;;;;;;2.57;1.80;;;14.90;73.90;;;;;;5054897;28;20626;-81
2022/07/15 04:16:27;;;;;;;2.67;2.20;;;14.90;73.90;;;;;;5051402;28;21114;-81
2022/07/15 04:18:54;;;;;;;1.70;1.60;;;14.80;73.90;;;;;;5060930;28;20622;-80
2022/07/15 04:21:21;;;;;;;1.23;1.13;;;14.80;74.60;;;;;;5051217;28;20668;-81
2022/07/15 04:23:48;;;;;;;1.53;1.43;;;14.80;74.70;;;;;;5061715;28;20655;-81
2022/07/15 04:26:15;;;;;;;0.90;0.90;;;14.80;75.20;;;;;;5070669;28;20613;-81
2022/07/15 04:28:43;;;;;;;1.53;1.27;;;14.80;76.00;;;;;;5063469;28;21400;-81
2022/07/15 04:31:10;;;;;;;2.30;2.10;;;14.90;76.80;;;;;;5056116;28;20633;-81
2022/07/15 04:33:37;;;;;;;2.27;1.80;;;15.10;76.70;;;;;;5050688;28;21239;-81
2022/07/15 04:36:05;;;;;;;2.00;1.90;;;15.30;76.00;;;;;;5047989;28;21188;-81
2022/07/15 04:38:32;;;;;;;2.13;1.93;;;15.30;77.00;;;;;;5056442;28;20629;-81
2022/07/15 04:40:59;;;;;;;1.50;1.40;;;15.30;77.60;;;;;;5062911;28;21309;-81
2022/07/15 04:43:26;;;;;;;1.80;1.50;;;15.30;78.10;;;;;;5057799;28;21116;-81
2022/07/15 04:45:54;;;;;;;1.40;1.30;;;15.30;79.00;;;;;;5060408;28;20631;-81
2022/07/15 04:51:05;;;;;;;1.40;1.30;;;15.40;79.00;;;;;;5064526;28;20609;-80
2022/07/15 04:53:32;;;;;;;12.83;9.60;;;15.40;79.30;;;;;;5060978;28;20659;-81
2022/07/15 04:55:59;;;;;;;4.80;3.13;;;15.40;78.70;;;;;;5050891;28;20630;-80
2022/07/15 04:58:26;;;;;;;1.50;1.40;;;15.50;78.60;;;;;;5060271;28;20661;-80
2022/07/15 05:00:54;;;;;;;1.33;1.20;;;15.60;78.60;;;;;;5070766;28;20648;-80
2022/07/15 05:03:21;;;;;;;1.20;1.10;;;15.70;77.60;;;;;;5056282;28;20715;-80
2022/07/15 05:05:48;;;;;;;2.40;1.47;;;15.70;76.60;;;;;;5047875;28;20622;-80
2022/07/15 05:08:14;;;;;;;1.20;1.10;;;15.90;74.90;;;;;;5050238;28;20630;-80
2022/07/15 05:10:41;;;;;;;1.87;1.77;;;16.00;75.20;;;;;;5050875;28;21031;-80
2022/07/15 05:13:08;;;;;;;1.63;1.53;;;16.10;74.40;;;;;;5049671;28;20720;-80
2022/07/15 05:15:36;;;;;;;2.10;1.90;;;16.30;73.50;;;;;;5050097;28;20721;-80
2022/07/15 05:18:04;;;;;;;6.70;1.97;;;16.30;73.70;;;;;;5049604;28;20637;-80
2022/07/15 05:20:31;;;;;;;1.53;1.43;;;16.40;73.70;;;;;;5049814;28;20653;-80
2022/07/15 05:22:58;;;;;;;1.43;1.27;;;16.50;74.90;;;;;;5050747;28;21274;-80
2022/07/15 05:25:25;;;;;;;2.00;1.67;;;16.50;74.90;;;;;;5050051;28;20632;-80
2022/07/15 05:27:52;;;;;;;1.87;1.67;;;16.60;74.40;;;;;;5054581;28;20639;-80
2022/07/15 05:30:19;;;;;;;7.20;1.80;;;16.60;73.70;;;;;;5062827;28;20721;-80
2022/07/15 05:32:46;;;;;;;2.17;2.03;;;16.70;73.90;;;;;;5048892;28;20699;-80
2022/07/15 05:35:15;;;;;;;5.80;3.77;;;16.80;73.00;;;;;;5057347;28;20633;-80
2022/07/15 05:37:44;;;;;;;5.80;3.50;;;16.90;72.90;;;;;;5058151;28;20912;-80
2022/07/15 05:40:11;;;;;;;1.90;1.70;;;17.00;73.30;;;;;;5068616;28;20653;-80
2022/07/15 05:42:39;;;;;;;1.93;1.40;;;17.10;73.40;;;;;;5058873;28;20849;-80
2022/07/15 05:45:07;;;;;;;1.10;1.00;;;17.20;72.60;;;;;;5053405;28;20619;-80
2022/07/15 05:47:34;;;;;;;1.47;1.10;;;17.40;70.10;;;;;;5049618;28;20761;-80
2022/07/15 05:50:01;;;;;;;2.10;1.37;;;17.40;70.40;;;;;;5044455;28;20691;-80
2022/07/15 05:52:30;;;;;;;1.70;1.57;;;17.50;68.80;;;;;;5048459;28;20610;-79
2022/07/15 05:54:56;;;;;;;2.10;1.67;;;17.60;69.10;;;;;;5048912;28;20684;-80
2022/07/15 05:57:23;;;;;;;1.47;1.37;;;17.70;69.20;;;;;;5052827;28;20645;-80
2022/07/15 05:59:50;;;;;;;2.70;1.47;;;17.70;67.80;;;;;;5048866;28;20737;-80
2022/07/15 06:02:17;;;;;;;1.30;1.17;;;17.80;67.40;;;;;;5048447;28;20712;-79
2022/07/15 06:04:44;;;;;;;1.70;1.60;;;17.80;66.60;;;;;;5059852;28;20733;-80
2022/07/15 06:07:11;;;;;;;1.80;1.30;;;17.90;66.30;;;;;;5048880;28;20607;-80
2022/07/15 06:09:40;;;;;;;1.00;0.97;;;18.10;63.60;;;;;;5055635;28;20628;-80
2022/07/15 06:12:09;;;;;;;1.63;1.40;;;18.20;64.20;;;;;;5061073;28;21665;-80
2022/07/15 06:14:36;;;;;;;1.57;1.47;;;18.40;62.90;;;;;;5052276;28;20737;-80
2022/07/15 06:17:03;;;;;;;1.27;1.17;;;18.60;59.30;;;;;;5060933;28;20646;-79
2022/07/15 06:19:30;;;;;;;1.40;1.00;;;18.70;59.90;;;;;;5066950;28;20683;-80
2022/07/15 06:21:57;;;;;;;0.97;0.87;;;18.60;58.90;;;;;;5067707;28;20653;-80
2022/07/15 06:24:23;;;;;;;1.00;1.00;;;18.70;58.40;;;;;;5064904;28;21127;-80
2022/07/15 06:26:52;;;;;;;1.37;1.27;;;19.00;57.80;;;;;;5054026;28;20660;-81
2022/07/15 06:29:19;;;;;;;1.80;1.20;;;19.10;55.20;;;;;;5059320;28;20727;-80
2022/07/15 06:31:46;;;;;;;0.70;0.70;;;19.20;54.60;;;;;;5047683;28;20653;-80
2022/07/15 06:34:13;;;;;;;0.70;0.67;;;19.40;53.90;;;;;;5047439;28;20625;-80
2022/07/15 06:36:40;;;;;;;1.50;1.30;;;19.40;54.40;;;;;;5040055;28;20753;-81
2022/07/15 06:39:07;;;;;;;1.20;1.10;;;19.40;53.80;;;;;;5049478;28;20631;-80
2022/07/15 06:41:34;;;;;;;1.60;1.23;;;19.60;52.70;;;;;;5047813;28;20630;-80
2022/07/15 06:44:04;;;;;;;1.47;1.23;;;19.70;52.40;;;;;;5048721;28;20657;-81
2022/07/15 06:46:31;;;;;;;0.87;0.83;;;19.80;51.60;;;;;;5061545;28;20630;-80
2022/07/15 06:48:57;;;;;;;1.20;1.10;;;20.00;51.50;;;;;;5051251;28;20745;-80
2022/07/15 06:51:24;;;;;;;1.07;0.97;;;20.00;51.30;;;;;;5065594;28;21032;-80
2022/07/15 06:53:51;;;;;;;1.20;1.10;;;20.10;51.70;;;;;;5065787;28;20712;-80
2022/07/15 06:56:18;;;;;;;1.63;1.40;;;20.20;51.40;;;;;;5065427;28;20633;-80
2022/07/15 06:58:45;;;;;;;0.90;0.90;;;20.30;52.10;;;;;;5058151;28;20733;-80
2022/07/15 07:01:14;;;;;;;1.97;1.10;;;20.30;52.10;;;;;;5049199;28;20733;-82
2022/07/15 07:03:40;;;;;;;1.40;1.30;;;20.40;51.30;;;;;;5051984;28;21305;-81
2022/07/15 07:06:08;;;;;;;1.10;1.00;;;20.50;52.20;;;;;;5066283;28;20653;-81
2022/07/15 07:08:34;;;;;;;1.97;0.90;;;20.50;51.40;;;;;;5050656;28;20809;-81
2022/07/15 07:11:01;;;;;;;1.10;1.00;;;20.60;51.40;;;;;;5062079;28;20653;-80
2022/07/15 07:13:28;;;;;;;0.83;0.83;;;20.70;51.30;;;;;;5054416;28;20618;-80
2022/07/15 07:15:55;;;;;;;1.50;0.93;;;;;;;;;;5067874;28;20668;-82
2022/07/15 07:18:24;;;;;;;1.20;1.10;;;20.70;51.10;;;;;;5063731;28;20618;-83
2022/07/15 07:20:51;;;;;;;0.80;0.70;;;20.80;51.70;;;;;;5055697;28;20656;-82
2022/07/15 07:23:18;;;;;;;0.80;0.80;;;20.70;50.70;;;;;;5054232;28;20707;-82
2022/07/15 07:25:45;;;;;;;1.57;1.33;;;20.80;50.30;;;;;;5055410;28;20629;-81
2022/07/15 07:28:13;;;;;;;2.27;2.07;;;20.90;51.00;;;;;;5068074;28;20653;-82
2022/07/15 07:30:40;;;;;;;1.40;1.30;;;21.10;52.00;;;;;;5064553;28;21266;-82
2022/07/15 07:33:07;;;;;;;1.30;1.20;;;21.20;51.30;;;;;;5047154;28;20614;-83
2022/07/15 07:35:35;;;;;;;1.80;1.70;;;21.20;51.80;;;;;;5063047;28;20622;-82
2022/07/15 07:38:02;;;;;;;1.13;1.03;;;21.40;50.20;;;;;;5049124;28;20749;-82
2022/07/15 07:40:29;;;;;;;1.40;1.30;;;21.40;50.40;;;;;;5058674;28;20725;-83
2022/07/15 07:42:57;;;;;;;1.60;1.43;;;21.60;50.20;;;;;;5052297;28;21189;-82
2022/07/15 07:45:24;;;;;;;3.87;1.60;;;21.60;50.00;;;;;;5049068;28;20797;-83
2022/07/15 07:47:51;;;;;;;1.50;1.40;;;21.70;49.00;;;;;;5047624;28;20672;-82
2022/07/15 07:50:18;;;;;;;1.00;1.00;;;21.60;48.00;;;;;;5057548;28;20697;-82
2022/07/15 07:52:47;;;;;;;2.43;1.60;;;21.70;49.70;;;;;;5066494;28;20658;-82
2022/07/15 07:55:14;;;;;;;1.43;1.33;;;21.80;49.30;;;;;;5057325;28;20710;-82
2022/07/15 07:57:49;;;;;;;1.07;1.07;;;21.90;48.60;;;;;;5065654;28;20681;-82
2022/07/15 08:00:17;;;;;;;2.03;1.63;;;22.00;49.40;;;;;;5048724;28;20645;-82
2022/07/15 08:02:43;;;;;;;1.23;1.10;;;22.00;49.20;;;;;;5044266;28;21024;-81
2022/07/15 08:05:11;;;;;;;1.27;1.17;;;22.00;48.30;;;;;;5043182;28;20688;-82
2022/07/15 08:07:38;;;;;;;2.00;1.80;;;22.10;48.20;;;;;;5050405;28;20732;-82
2022/07/15 08:10:08;;;;;;;1.37;1.27;;;22.10;48.50;;;;;;5052541;28;20632;-83
2022/07/15 08:12:36;;;;;;;1.30;1.20;;;22.30;49.30;;;;;;5062062;28;20657;-83
2022/07/15 08:15:04;;;;;;;2.07;1.27;;;22.40;48.30;;;;;;5059810;28;21253;-82
2022/07/15 08:17:31;;;;;;;1.40;1.30;;;22.50;48.80;;;;;;5047132;28;20717;-82
2022/07/15 08:19:58;;;;;;;1.37;1.20;;;22.60;48.70;;;;;;5048853;28;20626;-82
2022/07/15 08:22:25;;;;;;;1.73;1.50;;;22.70;48.50;;;;;;5048638;28;20614;-82
2022/07/15 08:24:52;;;;;;;1.40;1.30;;;22.80;47.40;;;;;;5053797;28;20673;-82
2022/07/15 08:27:20;;;;;;;0.93;0.93;;;22.80;48.00;;;;;;5051812;28;20717;-83
2022/07/15 08:29:47;;;;;;;3.20;1.47;;;22.80;48.20;;;;;;5051445;28;20732;-82
2022/07/15 08:32:14;;;;;;;1.70;1.20;;;22.90;47.40;;;;;;5057378;28;20645;-83
2022/07/15 08:34:41;;;;;;;1.30;1.20;;;22.80;47.60;;;;;;5056691;28;20630;-82
2022/07/15 08:37:09;;;;;;;1.20;1.10;;;22.90;47.70;;;;;;5049815;28;20625;-83
2022/07/15 08:39:37;;;;;;;1.93;1.83;;;23.10;47.50;;;;;;5050738;28;20638;-83
2022/07/15 08:42:06;;;;;;;5.17;4.73;;;22.10;47.50;;;;;;5050911;28;20626;-82
2022/07/15 08:44:36;;;;;;;2.17;2.07;;;22.00;48.10;;;;;;5062645;28;20739;-82
2022/07/15 08:47:05;;;;;;;1.30;1.20;;;22.10;48.40;;;;;;5052855;28;20630;-82
2022/07/15 08:49:34;;;;;;;2.20;1.17;;;22.40;48.20;;;;;;5060644;28;20645;-82
2022/07/15 08:52:02;;;;;;;1.03;1.00;;;22.70;47.60;;;;;;5051535;28;20737;-83
2022/07/15 08:54:29;;;;;;;2.00;1.47;;;22.90;47.30;;;;;;5048837;28;20619;-83
2022/07/15 08:56:57;;;;;;;1.40;1.30;;;22.80;47.50;;;;;;5049687;28;20726;-82
2022/07/15 08:59:24;;;;;;;1.47;1.37;;;22.90;48.60;;;;;;5050445;28;20636;-82
2022/07/15 09:01:54;;;;;;;1.03;0.90;;;23.00;47.10;;;;;;5051026;28;20676;-82
2022/07/15 09:04:21;;;;;;;1.40;1.30;;;23.20;47.70;;;;;;5050111;28;20646;-82
2022/07/15 09:06:50;;;;;;;2.10;1.70;;;23.50;47.70;;;;;;5052009;28;20645;-83
2022/07/15 09:09:28;;;;;;;2.47;1.33;;;23.60;47.50;;;;;;5051698;28;21231;-82
2022/07/15 09:11:57;;;;;;;1.50;1.20;;;23.20;47.40;;;;;;5049261;28;20637;-82
2022/07/15 09:14:25;;;;;;;1.60;1.50;;;23.00;49.00;;;;;;5049958;28;20628;-82
2022/07/15 09:17:18;;;;;;;1.37;1.27;;;22.90;48.10;;;;;;5050341;28;20728;-81
2022/07/15 09:20:08;;;;;;;2.83;1.17;;;22.60;48.00;;;;;;5049987;28;20634;-83
2022/07/15 09:22:49;;;;;;;1.97;1.83;;;22.90;49.10;;;;;;5049925;28;20618;-82
2022/07/15 09:25:16;;;;;;;1.47;1.37;;;23.20;48.80;;;;;;5050325;28;20725;-83
2022/07/15 09:27:44;;;;;;;1.50;1.40;;;23.00;47.20;;;;;;5050352;28;20634;-82
2022/07/15 09:36:03;;;;;;;1.53;1.43;;;23.70;48.10;;;;;;5045037;28;20630;-82
2022/07/15 09:38:32;;;;;;;1.70;1.60;;;23.80;48.30;;;;;;5049843;28;20617;-82
2022/07/15 09:41:00;;;;;;;1.43;1.33;;;23.80;46.70;;;;;;5049090;28;21173;-82
2022/07/15 09:43:27;;;;;;;1.60;1.50;;;23.70;49.00;;;;;;5049812;28;21177;-82
2022/07/15 09:45:59;;;;;;;3.63;1.70;;;24.00;47.90;;;;;;5049994;28;20654;-83
2022/07/15 09:48:29;;;;;;;2.10;1.90;;;24.20;46.90;;;;;;5050084;28;20693;-83
2022/07/15 09:51:02;;;;;;;1.53;1.40;;;24.30;46.00;;;;;;5050268;28;21175;-83
2022/07/15 09:53:29;;;;;;;1.97;1.77;;;24.50;45.70;;;;;;5049054;28;20622;-82
2022/07/15 09:55:56;;;;;;;1.60;1.50;;;24.50;46.50;;;;;;5049536;28;20696;-82
2022/07/15 09:58:24;;;;;;;1.33;1.23;;;24.40;46.30;;;;;;5049570;28;20722;-83
2022/07/15 10:00:52;;;;;;;2.03;1.83;;;24.60;48.00;;;;;;5049449;28;20641;-83
2022/07/15 10:03:23;;;;;;;2.07;1.87;;;24.90;46.40;;;;;;5048057;28;21084;-83
2022/07/15 10:05:54;;;;;;;1.77;1.67;;;25.20;45.70;;;;;;5047439;28;21227;-83
2022/07/15 10:08:22;;;;;;;1.80;1.70;;;25.30;45.50;;;;;;5048845;28;20621;-83
2022/07/15 10:10:51;;;;;;;1.77;1.63;;;25.40;45.40;;;;;;5048698;28;21240;-83
2022/07/15 10:13:35;;;;;;;1.20;1.10;;;25.50;45.60;;;;;;5047753;28;21157;-83
2022/07/15 10:16:15;;;;;;;1.40;1.30;;;25.00;46.40;;;;;;5048769;28;20630;-83
2022/07/15 10:18:57;;;;;;;1.40;1.30;;;25.30;46.50;;;;;;5049288;28;20728;-83
2022/07/15 10:21:36;;;;;;;1.13;1.07;;;25.50;46.20;;;;;;5049053;28;20634;-83
2022/07/15 10:24:19;;;;;;;3.47;2.03;;;25.70;46.90;;;;;;5048985;28;20676;-83
2022/07/15 10:26:57;;;;;;;2.93;1.80;;;25.90;44.80;;;;;;5048552;28;21370;-83
2022/07/15 10:29:24;;;;;;;1.60;1.50;;;26.10;45.20;;;;;;5047559;28;20634;-83
2022/07/15 10:31:58;;;;;;;1.70;1.60;;;26.10;44.90;;;;;;5048389;28;20618;-84
2022/07/15 10:34:30;;;;;;;1.37;1.27;;;26.30;44.90;;;;;;5047963;28;20726;-83
2022/07/15 10:37:02;;;;;;;1.70;1.60;;;26.50;43.10;;;;;;5048149;28;20618;-84
2022/07/15 10:39:48;;;;;;;1.87;1.50;;;26.50;42.80;;;;;;5046460;28;20666;-84
2022/07/15 10:42:16;;;;;;;1.50;1.40;;;26.60;42.70;;;;;;5048673;28;20633;-83
2022/07/15 10:45:02;;;;;;;1.80;1.53;;;26.60;45.10;;;;;;5046253;28;21073;-83
2022/07/15 10:47:29;;;;;;;2.00;1.90;;;26.10;44.50;;;;;;5042717;28;20688;-83
2022/07/15 10:49:56;;;;;;;1.43;1.33;;;26.20;44.00;;;;;;5046193;28;20624;-83
2022/07/15 10:52:26;;;;;;;5.57;1.80;;;26.40;44.30;;;;;;5048097;28;21221;-83
2022/07/15 10:55:03;;;;;;;1.63;1.53;;;26.60;42.80;;;;;;5045650;28;20610;-83
2022/07/15 10:57:55;;;;;;;2.97;1.93;;;26.90;45.30;;;;;;5041284;28;20626;-84
2022/07/15 11:00:32;;;;;;;2.07;1.93;;;26.50;43.90;;;;;;5046232;28;20653;-83
2022/07/15 11:03:04;;;;;;;1.97;1.43;;;26.70;43.50;;;;;;5048214;28;20630;-83
2022/07/15 11:05:31;;;;;;;1.90;1.80;;;26.60;42.80;;;;;;5048553;28;20716;-83
2022/07/15 11:07:59;;;;;;;1.90;1.57;;;26.40;42.50;;;;;;5048824;28;21161;-83
2022/07/15 11:10:26;;;;;;;1.63;1.53;;;26.50;41.50;;;;;;5048619;28;20626;-83
2022/07/15 11:13:05;;;;;;;1.60;1.50;;;26.00;42.70;;;;;;5049075;28;20723;-84
2022/07/15 11:15:33;;;;;;;1.63;1.53;;;26.80;43.80;;;;;;5048645;28;20621;-83
2022/07/15 11:18:01;;;;;;;1.50;1.40;;;26.60;43.70;;;;;;5048443;28;20717;-83
2022/07/15 11:20:34;;;;;;;1.70;1.60;;;26.80;43.70;;;;;;5048086;28;20650;-84
2022/07/15 11:23:06;;;;;;;1.93;1.70;;;28.10;40.90;;;;;;5047710;28;20618;-84
2022/07/15 11:25:35;;;;;;;1.90;1.80;;;28.10;41.20;;;;;;5048242;28;20658;-84
2022/07/15 11:28:06;;;;;;;1.73;1.63;;;28.60;43.10;;;;;;5047643;28;21478;-83
2022/07/15 11:30:36;;;;;;;1.37;1.27;;;28.50;43.00;;;;;;5047607;28;20626;-83
2022/07/15 11:33:05;;;;;;;1.33;1.23;;;27.70;41.60;;;;;;5047781;28;20618;-83
2022/07/15 11:35:44;;;;;;;1.30;1.20;;;27.50;44.00;;;;;;5047778;28;20679;-85
2022/07/15 11:38:15;;;;;;;1.80;1.70;;;28.30;42.50;;;;;;5048152;28;20701;-84
2022/07/15 11:46:18;;;;;;;1.60;1.50;;;29.60;42.00;;;;;;5048294;28;20598;-85
2022/07/15 11:48:45;;;;;;;3.47;2.10;;;30.10;40.40;;;;;;5048179;28;20645;-84
2022/07/15 11:51:12;;;;;;;2.37;1.87;;;30.40;40.40;;;;;;5047844;28;20677;-83
2022/07/15 11:53:42;;;;;;;1.83;1.73;;;30.50;41.60;;;;;;5047925;28;21038;-83
2022/07/15 11:56:11;;;;;;;1.60;1.50;;;30.50;40.20;;;;;;5047584;28;20665;-84
2022/07/15 11:58:40;;;;;;;2.17;1.43;;;30.40;38.50;;;;;;5047769;28;20975;-85
2022/07/15 12:01:09;;;;;;;1.57;1.47;;;30.50;38.90;;;;;;5051764;28;20709;-85
2022/07/15 12:03:40;;;;;;;1.97;1.80;;;30.20;38.50;;;;;;5051701;28;21192;-84
2022/07/15 12:06:11;;;;;;;1.80;1.70;;;30.50;40.60;;;;;;5052241;28;21002;-84
2022/07/15 12:08:43;;;;;;;2.00;1.90;;;31.20;38.10;;;;;;5051452;28;20713;-84
2022/07/15 12:11:15;;;;;;;2.20;2.00;;;31.10;38.30;;;;;;5052472;28;20699;-84
2022/07/15 12:13:48;;;;;;;3.20;1.83;;;31.10;37.40;;;;;;5050882;28;20984;-86
2022/07/15 12:16:18;;;;;;;2.00;1.90;;;30.70;38.60;;;;;;5051508;28;20613;-84
2022/07/15 12:18:45;;;;;;;1.90;1.70;;;30.50;38.70;;;;;;5051860;28;20746;-85
2022/07/15 12:21:12;;;;;;;1.53;1.43;;;30.10;38.10;;;;;;5051412;28;20692;-83
2022/07/15 12:23:39;;;;;;;5.73;2.07;;;29.50;39.40;;;;;;5051753;28;20731;-83
2022/07/15 12:26:09;;;;;;;1.47;1.37;;;28.60;41.70;;;;;;5052038;28;20649;-83
2022/07/15 12:28:37;;;;;;;1.77;1.67;;;27.70;42.30;;;;;;5051674;28;20724;-83
2022/07/15 12:31:04;;;;;;;1.80;1.70;;;27.70;42.00;;;;;;5051029;28;20644;-83
2022/07/15 12:33:39;;;;;;;2.13;1.83;;;28.20;41.60;;;;;;5050817;28;20699;-84
2022/07/15 12:36:14;;;;;;;3.20;2.00;;;28.40;42.20;;;;;;5051283;28;21325;-84
2022/07/15 12:38:42;;;;;;;1.83;1.73;;;28.80;40.30;;;;;;5051367;28;20667;-85
2022/07/15 12:41:24;;;;;;;1.40;1.30;;;28.80;40.60;;;;;;5051073;28;21152;-85
2022/07/15 12:43:56;;;;;;;1.50;1.40;;;29.30;42.10;;;;;;5051070;28;21348;-84
2022/07/15 12:46:52;;;;;;;1.97;1.87;;;30.00;39.50;;;;;;5050756;28;20635;-84
2022/07/15 12:49:42;;;;;;;1.53;1.43;;;28.80;41.20;;;;;;5051109;28;20752;-84
2022/07/15 12:52:17;;;;;;;1.80;1.70;;;28.90;42.00;;;;;;5048653;28;20602;-83
2022/07/15 12:54:44;;;;;;;1.70;1.60;;;29.20;41.40;;;;;;5050207;28;20649;-84
2022/07/15 12:57:30;;;;;;;2.17;2.03;;;29.60;40.90;;;;;;5050319;28;20621;-85
2022/07/15 12:59:58;;;;;;;1.60;1.50;;;30.40;39.00;;;;;;5050384;28;20634;-84
2022/07/15 13:02:26;;;;;;;2.07;1.87;;;30.90;40.50;;;;;;5050414;28;20626;-84
2022/07/15 13:04:53;;;;;;;1.87;1.77;;;31.40;40.70;;;;;;5050892;28;20676;-84
2022/07/15 13:07:20;;;;;;;1.70;1.60;;;32.40;37.80;;;;;;5045507;28;21034;-83
2022/07/15 13:09:47;;;;;;;1.80;1.70;;;33.60;38.00;;;;;;5050571;28;20649;-84
2022/07/15 13:12:15;;;;;;;2.00;1.90;;;34.10;35.60;;;;;;5048028;28;20618;-85
2022/07/15 13:14:43;;;;;;;1.50;1.40;;;34.00;36.00;;;;;;5048661;28;20672;-84
2022/07/15 13:17:13;;;;;;;1.47;1.37;;;33.60;37.00;;;;;;5050147;28;21197;-83